JNA271 RKSI-RJFF
Flight info
| Callsign | JNA271 |
|---|---|
| Flight time | 1h 6m |
| Altitude | 31000 |
| Route | OSPOT Y782 TGU Y781 BESNA Y209 IKE |
| Aircraft | B772/H-SDE2E3FGHIJ5LORVWXY/LB1D1 |
Departure
| Time | 2026-05-07 13:56 |
|---|---|
| Airport | Incheon International Airport (RKSI) |
Arrival
| Time | 2026-05-07 15:03 |
|---|---|
| Airport | Fukuoka Airport (RJFF) |
| Time | Latitude | Longitude | Altitude | Speed | Heading |
|---|---|---|---|---|---|
| 2026-05-07 13:21 | 37.46247 | 126.43242 | 36 ft | 0 kts | 69° |
| 2026-05-07 13:45 | 37.46241 | 126.43225 | 37 ft | 4 kts | 68° |
| 2026-05-07 13:46 | 37.46230 | 126.43193 | 35 ft | 4 kts | 66° |
| 2026-05-07 13:46 | 37.46221 | 126.43165 | 36 ft | 3 kts | 70° |
| 2026-05-07 13:46 | 37.46216 | 126.43134 | 33 ft | 4 kts | 101° |
| 2026-05-07 13:46 | 37.46227 | 126.43108 | 34 ft | 4 kts | 152° |
| 2026-05-07 13:47 | 37.46252 | 126.43098 | 36 ft | 4 kts | 170° |
| 2026-05-07 13:47 | 37.46277 | 126.43091 | 35 ft | 2 kts | 155° |
| 2026-05-07 13:47 | 37.46279 | 126.43090 | 35 ft | 0 kts | 154° |
| 2026-05-07 13:50 | 37.46246 | 126.43110 | 35 ft | 11 kts | 155° |
| 2026-05-07 13:50 | 37.46166 | 126.43160 | 37 ft | 13 kts | 148° |
| 2026-05-07 13:50 | 37.46092 | 126.43224 | 37 ft | 13 kts | 145° |
| 2026-05-07 13:50 | 37.46020 | 126.43286 | 37 ft | 9 kts | 147° |
| 2026-05-07 13:51 | 37.45965 | 126.43272 | 36 ft | 9 kts | 224° |
| 2026-05-07 13:51 | 37.45924 | 126.43212 | 37 ft | 9 kts | 210° |
| 2026-05-07 13:51 | 37.45865 | 126.43238 | 35 ft | 10 kts | 146° |
| 2026-05-07 13:51 | 37.45783 | 126.43310 | 37 ft | 18 kts | 145° |
| 2026-05-07 13:52 | 37.45664 | 126.43416 | 37 ft | 22 kts | 144° |
| 2026-05-07 13:52 | 37.45540 | 126.43527 | 37 ft | 22 kts | 144° |
| 2026-05-07 13:52 | 37.45415 | 126.43638 | 37 ft | 22 kts | 144° |
| 2026-05-07 13:52 | 37.45291 | 126.43749 | 37 ft | 22 kts | 144° |
| 2026-05-07 13:53 | 37.45166 | 126.43860 | 37 ft | 22 kts | 144° |
| 2026-05-07 13:53 | 37.45053 | 126.43961 | 37 ft | 22 kts | 144° |
| 2026-05-07 13:53 | 37.44978 | 126.44027 | 37 ft | 22 kts | 145° |
| 2026-05-07 13:53 | 37.44853 | 126.44138 | 37 ft | 22 kts | 144° |
| 2026-05-07 13:54 | 37.44729 | 126.44248 | 35 ft | 22 kts | 144° |
| 2026-05-07 13:54 | 37.44604 | 126.44360 | 37 ft | 22 kts | 144° |
| 2026-05-07 13:54 | 37.44512 | 126.44423 | 37 ft | 10 kts | 182° |
| 2026-05-07 13:54 | 37.44462 | 126.44365 | 37 ft | 10 kts | 235° |
| 2026-05-07 13:55 | 37.44417 | 126.44284 | 37 ft | 13 kts | 235° |
| 2026-05-07 13:55 | 37.44364 | 126.44185 | 37 ft | 12 kts | 246° |
| 2026-05-07 13:55 | 37.44405 | 126.44117 | 37 ft | 11 kts | 329° |
| 2026-05-07 13:55 | 37.44430 | 126.44096 | 37 ft | 12 kts | 325° |
| 2026-05-07 13:56 | 37.44659 | 126.43893 | 37 ft | 78 kts | 324° |
| 2026-05-07 13:56 | 37.45318 | 126.43308 | 51 ft | 149 kts | 324° |
| 2026-05-07 13:56 | 37.46189 | 126.42536 | 787 ft | 154 kts | 323° |
| 2026-05-07 13:56 | 37.47041 | 126.41800 | 1972 ft | 142 kts | 326° |
| 2026-05-07 13:57 | 37.47784 | 126.40963 | 2530 ft | 149 kts | 307° |
| 2026-05-07 13:57 | 37.48391 | 126.39904 | 3026 ft | 148 kts | 312° |
| 2026-05-07 13:57 | 37.49063 | 126.38880 | 3488 ft | 159 kts | 312° |
| 2026-05-07 13:57 | 37.49828 | 126.37719 | 3671 ft | 183 kts | 309° |
| 2026-05-07 13:58 | 37.50365 | 126.36159 | 3820 ft | 211 kts | 283° |
| 2026-05-07 13:58 | 37.50491 | 126.34214 | 4037 ft | 236 kts | 275° |
| 2026-05-07 13:58 | 37.50531 | 126.32088 | 4578 ft | 247 kts | 274° |
| 2026-05-07 13:58 | 37.50567 | 126.29902 | 5270 ft | 252 kts | 274° |
| 2026-05-07 13:59 | 37.50610 | 126.27686 | 6060 ft | 254 kts | 273° |
| 2026-05-07 13:59 | 37.50657 | 126.25458 | 6845 ft | 255 kts | 273° |
| 2026-05-07 13:59 | 37.50707 | 126.23215 | 7573 ft | 258 kts | 274° |
| 2026-05-07 13:59 | 37.50696 | 126.20962 | 8274 ft | 259 kts | 264° |
| 2026-05-07 14:00 | 37.49995 | 126.18838 | 8931 ft | 271 kts | 236° |
| 2026-05-07 14:00 | 37.48520 | 126.17336 | 9799 ft | 281 kts | 210° |
| 2026-05-07 14:00 | 37.46576 | 126.16770 | 10472 ft | 299 kts | 186° |
| 2026-05-07 14:00 | 37.44411 | 126.17206 | 10695 ft | 333 kts | 167° |
| 2026-05-07 14:01 | 37.42179 | 126.18234 | 11061 ft | 355 kts | 163° |
| 2026-05-07 14:01 | 37.39884 | 126.19437 | 11968 ft | 360 kts | 162° |
| 2026-05-07 14:01 | 37.37593 | 126.20703 | 13136 ft | 359 kts | 162° |
| 2026-05-07 14:01 | 37.35339 | 126.22052 | 14127 ft | 362 kts | 157° |
| 2026-05-07 14:02 | 37.33304 | 126.24033 | 14867 ft | 383 kts | 139° |
| 2026-05-07 14:02 | 37.31734 | 126.26810 | 15679 ft | 397 kts | 124° |
| 2026-05-07 14:02 | 37.30470 | 126.29915 | 16373 ft | 403 kts | 124° |
| 2026-05-07 14:02 | 37.29134 | 126.33048 | 17132 ft | 409 kts | 126° |
| 2026-05-07 14:03 | 37.27760 | 126.36195 | 18020 ft | 413 kts | 127° |
| 2026-05-07 14:03 | 37.26363 | 126.39372 | 18740 ft | 419 kts | 127° |
| 2026-05-07 14:03 | 37.24940 | 126.42596 | 19352 ft | 427 kts | 127° |
| 2026-05-07 14:03 | 37.23485 | 126.45888 | 19940 ft | 435 kts | 127° |
| 2026-05-07 14:04 | 37.22009 | 126.49233 | 20558 ft | 442 kts | 128° |
| 2026-05-07 14:04 | 37.20518 | 126.52617 | 21246 ft | 445 kts | 128° |
| 2026-05-07 14:04 | 37.19010 | 126.56041 | 21879 ft | 452 kts | 128° |
| 2026-05-07 14:04 | 37.17473 | 126.59518 | 22414 ft | 461 kts | 128° |
| 2026-05-07 14:05 | 37.15901 | 126.63068 | 22995 ft | 469 kts | 128° |
| 2026-05-07 14:05 | 37.14308 | 126.66666 | 23608 ft | 476 kts | 128° |
| 2026-05-07 14:05 | 37.12691 | 126.70319 | 24177 ft | 481 kts | 128° |
| 2026-05-07 14:05 | 37.11065 | 126.73993 | 24812 ft | 484 kts | 128° |
| 2026-05-07 14:06 | 37.09427 | 126.77689 | 25436 ft | 487 kts | 128° |
| 2026-05-07 14:06 | 37.07779 | 126.81403 | 26074 ft | 490 kts | 129° |
| 2026-05-07 14:06 | 37.06112 | 126.85148 | 26636 ft | 495 kts | 129° |
| 2026-05-07 14:06 | 37.04430 | 126.88923 | 27168 ft | 499 kts | 129° |
| 2026-05-07 14:07 | 37.02727 | 126.92736 | 27702 ft | 504 kts | 129° |
| 2026-05-07 14:07 | 37.01011 | 126.96580 | 28210 ft | 508 kts | 129° |
| 2026-05-07 14:07 | 36.99278 | 127.00455 | 28688 ft | 512 kts | 129° |
| 2026-05-07 14:07 | 36.97537 | 127.04346 | 29235 ft | 515 kts | 129° |
| 2026-05-07 14:08 | 36.95782 | 127.08266 | 29720 ft | 518 kts | 129° |
| 2026-05-07 14:08 | 36.94011 | 127.12215 | 30146 ft | 523 kts | 129° |
| 2026-05-07 14:08 | 36.92227 | 127.16187 | 30521 ft | 526 kts | 129° |
| 2026-05-07 14:08 | 36.90436 | 127.20176 | 30927 ft | 527 kts | 129° |
| 2026-05-07 14:09 | 36.88641 | 127.24173 | 30921 ft | 526 kts | 129° |
| 2026-05-07 14:09 | 36.85027 | 127.31998 | 30950 ft | 512 kts | 134° |
| 2026-05-07 14:10 | 36.80703 | 127.38847 | 30968 ft | 500 kts | 145° |
| 2026-05-07 14:10 | 36.75716 | 127.44836 | 30970 ft | 499 kts | 148° |
| 2026-05-07 14:11 | 36.70740 | 127.50890 | 30926 ft | 496 kts | 146° |
| 2026-05-07 14:11 | 36.65865 | 127.56876 | 30924 ft | 491 kts | 147° |
| 2026-05-07 14:12 | 36.61764 | 127.61872 | 30939 ft | 493 kts | 147° |
| 2026-05-07 14:12 | 36.56050 | 127.68830 | 30939 ft | 495 kts | 147° |
| 2026-05-07 14:13 | 36.51927 | 127.73851 | 30922 ft | 495 kts | 146° |
| 2026-05-07 14:13 | 36.47012 | 127.79823 | 30938 ft | 494 kts | 146° |
| 2026-05-07 14:14 | 36.42107 | 127.85775 | 30932 ft | 492 kts | 146° |
| 2026-05-07 14:14 | 36.37223 | 127.91709 | 30925 ft | 491 kts | 146° |
| 2026-05-07 14:15 | 36.32345 | 127.97619 | 30911 ft | 490 kts | 146° |
| 2026-05-07 14:15 | 36.27451 | 128.03538 | 30918 ft | 493 kts | 146° |
| 2026-05-07 14:16 | 36.22526 | 128.09473 | 30927 ft | 495 kts | 146° |
| 2026-05-07 14:16 | 36.17579 | 128.15420 | 30910 ft | 496 kts | 146° |
| 2026-05-07 14:17 | 36.12625 | 128.21369 | 30891 ft | 496 kts | 146° |
| 2026-05-07 14:17 | 36.07681 | 128.27298 | 30909 ft | 494 kts | 146° |
| 2026-05-07 14:18 | 36.02745 | 128.33207 | 30914 ft | 494 kts | 145° |
| 2026-05-07 14:18 | 35.97806 | 128.39098 | 30892 ft | 493 kts | 145° |
| 2026-05-07 14:19 | 35.92912 | 128.44938 | 30893 ft | 492 kts | 145° |
| 2026-05-07 14:19 | 35.87986 | 128.50796 | 30888 ft | 491 kts | 145° |
| 2026-05-07 14:20 | 35.82963 | 128.56386 | 30903 ft | 473 kts | 158° |
| 2026-05-07 14:20 | 35.80053 | 128.58023 | 30913 ft | 451 kts | 174° |
| 2026-05-07 14:20 | 35.77033 | 128.58703 | 30906 ft | 431 kts | 186° |
| 2026-05-07 14:21 | 35.71122 | 128.58317 | 30860 ft | 428 kts | 194° |
| 2026-05-07 14:21 | 35.65154 | 128.57665 | 30888 ft | 432 kts | 193° |
| 2026-05-07 14:21 | 35.62506 | 128.57410 | 30746 ft | 432 kts | 193° |
| 2026-05-07 14:22 | 35.59519 | 128.57140 | 30488 ft | 429 kts | 193° |
| 2026-05-07 14:22 | 35.56554 | 128.56875 | 30262 ft | 425 kts | 193° |
| 2026-05-07 14:22 | 35.53616 | 128.56613 | 30039 ft | 423 kts | 193° |
| 2026-05-07 14:22 | 35.50659 | 128.56515 | 29738 ft | 430 kts | 185° |
| 2026-05-07 14:23 | 35.47656 | 128.57036 | 29476 ft | 441 kts | 177° |
| 2026-05-07 14:23 | 35.44673 | 128.58059 | 29218 ft | 450 kts | 169° |
| 2026-05-07 14:23 | 35.41772 | 128.59599 | 28901 ft | 457 kts | 163° |
| 2026-05-07 14:23 | 35.38927 | 128.61316 | 28695 ft | 455 kts | 162° |
| 2026-05-07 14:24 | 35.36103 | 128.63059 | 28428 ft | 454 kts | 163° |
| 2026-05-07 14:24 | 35.33279 | 128.64785 | 28183 ft | 453 kts | 163° |
| 2026-05-07 14:24 | 35.30454 | 128.66487 | 27893 ft | 450 kts | 163° |
| 2026-05-07 14:24 | 35.27646 | 128.68166 | 27616 ft | 448 kts | 163° |
| 2026-05-07 14:25 | 35.24848 | 128.69826 | 27400 ft | 446 kts | 163° |
| 2026-05-07 14:25 | 35.23000 | 128.70917 | 27219 ft | 445 kts | 163° |
| 2026-05-07 14:25 | 35.19280 | 128.73109 | 26889 ft | 443 kts | 163° |
| 2026-05-07 14:25 | 35.16511 | 128.74743 | 26631 ft | 441 kts | 163° |
| 2026-05-07 14:26 | 35.13757 | 128.76363 | 26389 ft | 438 kts | 163° |
| 2026-05-07 14:26 | 35.11021 | 128.77968 | 26134 ft | 435 kts | 163° |
| 2026-05-07 14:26 | 35.08300 | 128.79564 | 25895 ft | 432 kts | 163° |
| 2026-05-07 14:26 | 35.05599 | 128.81148 | 25657 ft | 430 kts | 163° |
| 2026-05-07 14:27 | 35.02909 | 128.82724 | 25407 ft | 428 kts | 163° |
| 2026-05-07 14:27 | 35.00242 | 128.84334 | 25158 ft | 429 kts | 160° |
| 2026-05-07 14:27 | 34.97652 | 128.86164 | 25007 ft | 431 kts | 157° |
| 2026-05-07 14:27 | 34.95106 | 128.88112 | 24968 ft | 434 kts | 156° |
| 2026-05-07 14:28 | 34.92558 | 128.90101 | 24904 ft | 435 kts | 155° |
| 2026-05-07 14:28 | 34.90020 | 128.92079 | 24897 ft | 431 kts | 156° |
| 2026-05-07 14:28 | 34.87487 | 128.94033 | 24901 ft | 430 kts | 156° |
| 2026-05-07 14:28 | 34.84957 | 128.95964 | 24907 ft | 429 kts | 156° |
| 2026-05-07 14:29 | 34.82421 | 128.97885 | 24913 ft | 429 kts | 156° |
| 2026-05-07 14:29 | 34.79884 | 128.99798 | 24920 ft | 429 kts | 156° |
| 2026-05-07 14:29 | 34.77347 | 129.01708 | 24918 ft | 429 kts | 156° |
| 2026-05-07 14:29 | 34.74843 | 129.03592 | 24906 ft | 429 kts | 156° |
| 2026-05-07 14:30 | 34.72304 | 129.05504 | 24917 ft | 429 kts | 156° |
| 2026-05-07 14:30 | 34.69762 | 129.07416 | 24920 ft | 430 kts | 156° |
| 2026-05-07 14:30 | 34.67223 | 129.09325 | 24919 ft | 430 kts | 156° |
| 2026-05-07 14:30 | 34.64678 | 129.11237 | 24924 ft | 430 kts | 156° |
| 2026-05-07 14:31 | 34.62132 | 129.13149 | 24909 ft | 430 kts | 155° |
| 2026-05-07 14:31 | 34.59586 | 129.15056 | 24916 ft | 430 kts | 155° |
| 2026-05-07 14:31 | 34.57040 | 129.16957 | 24921 ft | 430 kts | 155° |
| 2026-05-07 14:31 | 34.54493 | 129.18854 | 24921 ft | 430 kts | 155° |
| 2026-05-07 14:32 | 34.51944 | 129.20752 | 24928 ft | 430 kts | 155° |
| 2026-05-07 14:32 | 34.49397 | 129.22648 | 24928 ft | 429 kts | 155° |
| 2026-05-07 14:32 | 34.46877 | 129.24528 | 24663 ft | 418 kts | 155° |
| 2026-05-07 14:32 | 34.44425 | 129.26362 | 23830 ft | 411 kts | 155° |
| 2026-05-07 14:33 | 34.42005 | 129.28163 | 22770 ft | 407 kts | 155° |
| 2026-05-07 14:33 | 34.39599 | 129.29951 | 21715 ft | 403 kts | 155° |
| 2026-05-07 14:33 | 34.37228 | 129.31710 | 20768 ft | 397 kts | 155° |
| 2026-05-07 14:33 | 34.34896 | 129.33443 | 19907 ft | 390 kts | 155° |
| 2026-05-07 14:34 | 34.32598 | 129.35147 | 19046 ft | 385 kts | 156° |
| 2026-05-07 14:34 | 34.30336 | 129.36824 | 18374 ft | 379 kts | 156° |
| 2026-05-07 14:34 | 34.28085 | 129.38486 | 17871 ft | 379 kts | 156° |
| 2026-05-07 14:34 | 34.25839 | 129.40144 | 17370 ft | 378 kts | 156° |
| 2026-05-07 14:35 | 34.23605 | 129.41796 | 16900 ft | 376 kts | 156° |
| 2026-05-07 14:35 | 34.21377 | 129.43442 | 16439 ft | 374 kts | 156° |
| 2026-05-07 14:35 | 34.19162 | 129.45078 | 15938 ft | 373 kts | 155° |
| 2026-05-07 14:35 | 34.16951 | 129.46710 | 15496 ft | 372 kts | 155° |
| 2026-05-07 14:36 | 34.14747 | 129.48336 | 15036 ft | 371 kts | 155° |
| 2026-05-07 14:36 | 34.12544 | 129.49961 | 14566 ft | 370 kts | 155° |
| 2026-05-07 14:36 | 34.10947 | 129.51139 | 14229 ft | 370 kts | 154° |
| 2026-05-07 14:37 | 34.08747 | 129.52760 | 13739 ft | 371 kts | 154° |
| 2026-05-07 14:37 | 34.04377 | 129.55981 | 12997 ft | 360 kts | 154° |
| 2026-05-07 14:37 | 34.02260 | 129.57554 | 12986 ft | 358 kts | 154° |
| 2026-05-07 14:38 | 34.00140 | 129.59125 | 12973 ft | 357 kts | 154° |
| 2026-05-07 14:38 | 33.98034 | 129.60687 | 12969 ft | 355 kts | 154° |
| 2026-05-07 14:38 | 33.95929 | 129.62246 | 12976 ft | 355 kts | 154° |
| 2026-05-07 14:38 | 33.93813 | 129.63790 | 12980 ft | 356 kts | 154° |
| 2026-05-07 14:39 | 33.91689 | 129.65329 | 12986 ft | 357 kts | 154° |
| 2026-05-07 14:39 | 33.89559 | 129.66873 | 12985 ft | 357 kts | 154° |
| 2026-05-07 14:39 | 33.87431 | 129.68418 | 12981 ft | 357 kts | 154° |
| 2026-05-07 14:39 | 33.85305 | 129.69961 | 12985 ft | 357 kts | 154° |
| 2026-05-07 14:40 | 33.83203 | 129.71486 | 12982 ft | 357 kts | 154° |
| 2026-05-07 14:40 | 33.81083 | 129.73047 | 12986 ft | 357 kts | 154° |
| 2026-05-07 14:40 | 33.78999 | 129.74649 | 12971 ft | 352 kts | 150° |
| 2026-05-07 14:40 | 33.76916 | 129.76171 | 12764 ft | 352 kts | 163° |
| 2026-05-07 14:41 | 33.74613 | 129.77117 | 12449 ft | 349 kts | 169° |
| 2026-05-07 14:41 | 33.72288 | 129.77859 | 12075 ft | 344 kts | 171° |
| 2026-05-07 14:41 | 33.69977 | 129.78547 | 11686 ft | 340 kts | 172° |
| 2026-05-07 14:41 | 33.67691 | 129.79219 | 11274 ft | 337 kts | 172° |
| 2026-05-07 14:42 | 33.65425 | 129.79877 | 10936 ft | 332 kts | 172° |
| 2026-05-07 14:42 | 33.63198 | 129.80520 | 10905 ft | 326 kts | 172° |
| 2026-05-07 14:42 | 33.60964 | 129.81157 | 10884 ft | 332 kts | 172° |
| 2026-05-07 14:42 | 33.58739 | 129.81791 | 10691 ft | 324 kts | 172° |
| 2026-05-07 14:43 | 33.56587 | 129.82412 | 10552 ft | 311 kts | 170° |
| 2026-05-07 14:43 | 33.54648 | 129.83458 | 10393 ft | 308 kts | 148° |
| 2026-05-07 14:43 | 33.53243 | 129.85374 | 10260 ft | 308 kts | 121° |
| 2026-05-07 14:43 | 33.52619 | 129.87827 | 10064 ft | 312 kts | 96° |
| 2026-05-07 14:44 | 33.52727 | 129.90420 | 9865 ft | 311 kts | 83° |
| 2026-05-07 14:44 | 33.53005 | 129.92989 | 9617 ft | 311 kts | 82° |
| 2026-05-07 14:44 | 33.53299 | 129.95556 | 9358 ft | 311 kts | 82° |
| 2026-05-07 14:44 | 33.53600 | 129.98112 | 9108 ft | 309 kts | 82° |
| 2026-05-07 14:45 | 33.53904 | 130.00656 | 8852 ft | 307 kts | 82° |
| 2026-05-07 14:45 | 33.54209 | 130.03179 | 8604 ft | 304 kts | 82° |
| 2026-05-07 14:45 | 33.54515 | 130.05675 | 8349 ft | 301 kts | 82° |
| 2026-05-07 14:45 | 33.54821 | 130.08148 | 8093 ft | 299 kts | 82° |
| 2026-05-07 14:46 | 33.55128 | 130.10597 | 7853 ft | 296 kts | 82° |
| 2026-05-07 14:46 | 33.55436 | 130.13024 | 7613 ft | 293 kts | 82° |
| 2026-05-07 14:46 | 33.55747 | 130.15432 | 7374 ft | 291 kts | 82° |
| 2026-05-07 14:46 | 33.56059 | 130.17825 | 7117 ft | 290 kts | 82° |
| 2026-05-07 14:47 | 33.56374 | 130.20206 | 6840 ft | 289 kts | 82° |
| 2026-05-07 14:47 | 33.56704 | 130.22573 | 6552 ft | 285 kts | 78° |
| 2026-05-07 14:47 | 33.57506 | 130.24713 | 6241 ft | 283 kts | 51° |
| 2026-05-07 14:47 | 33.59014 | 130.26177 | 5926 ft | 280 kts | 22° |
| 2026-05-07 14:48 | 33.60854 | 130.26655 | 5644 ft | 273 kts | 354° |
| 2026-05-07 14:48 | 33.62662 | 130.26158 | 5351 ft | 263 kts | 333° |
| 2026-05-07 14:48 | 33.64126 | 130.24929 | 5048 ft | 255 kts | 305° |
| 2026-05-07 14:48 | 33.65060 | 130.23172 | 4791 ft | 249 kts | 294° |
| 2026-05-07 14:49 | 33.65851 | 130.21327 | 4495 ft | 250 kts | 292° |
| 2026-05-07 14:49 | 33.66627 | 130.19454 | 4186 ft | 251 kts | 292° |
| 2026-05-07 14:49 | 33.67399 | 130.17574 | 3882 ft | 251 kts | 292° |
| 2026-05-07 14:49 | 33.68174 | 130.15679 | 3570 ft | 249 kts | 292° |
| 2026-05-07 14:50 | 33.68928 | 130.13835 | 3281 ft | 249 kts | 292° |
| 2026-05-07 14:50 | 33.69687 | 130.11981 | 3077 ft | 244 kts | 292° |
| 2026-05-07 14:50 | 33.70424 | 130.10186 | 3015 ft | 237 kts | 292° |
| 2026-05-07 14:50 | 33.71153 | 130.08415 | 2987 ft | 236 kts | 292° |
| 2026-05-07 14:51 | 33.71955 | 130.06673 | 2981 ft | 244 kts | 304° |
| 2026-05-07 14:51 | 33.73331 | 130.05414 | 2997 ft | 259 kts | 334° |
| 2026-05-07 14:51 | 33.75131 | 130.05098 | 2986 ft | 267 kts | 3° |
| 2026-05-07 14:51 | 33.76876 | 130.05851 | 2977 ft | 269 kts | 32° |
| 2026-05-07 14:52 | 33.78342 | 130.07254 | 2996 ft | 273 kts | 40° |
| 2026-05-07 14:52 | 33.79760 | 130.08791 | 2994 ft | 276 kts | 41° |
| 2026-05-07 14:52 | 33.81115 | 130.10389 | 2973 ft | 271 kts | 53° |
| 2026-05-07 14:52 | 33.81893 | 130.12428 | 2991 ft | 271 kts | 82° |
| 2026-05-07 14:53 | 33.81789 | 130.14649 | 2997 ft | 267 kts | 112° |
| 2026-05-07 14:53 | 33.80933 | 130.16579 | 2994 ft | 260 kts | 129° |
| 2026-05-07 14:53 | 33.79862 | 130.18345 | 2989 ft | 262 kts | 131° |
| 2026-05-07 14:53 | 33.78760 | 130.20093 | 2987 ft | 263 kts | 131° |
| 2026-05-07 14:54 | 33.77649 | 130.21838 | 2983 ft | 263 kts | 131° |
| 2026-05-07 14:54 | 33.76480 | 130.23461 | 2975 ft | 250 kts | 144° |
| 2026-05-07 14:54 | 33.75082 | 130.24691 | 2925 ft | 252 kts | 151° |
| 2026-05-07 14:54 | 33.73596 | 130.25854 | 2705 ft | 257 kts | 151° |
| 2026-05-07 14:55 | 33.72088 | 130.26979 | 2454 ft | 254 kts | 152° |
| 2026-05-07 14:55 | 33.70587 | 130.28077 | 2196 ft | 251 kts | 152° |
| 2026-05-07 14:55 | 33.69107 | 130.29147 | 2065 ft | 243 kts | 152° |
| 2026-05-07 14:55 | 33.67687 | 130.30173 | 2010 ft | 233 kts | 151° |
| 2026-05-07 14:56 | 33.66319 | 130.31154 | 1989 ft | 226 kts | 152° |
| 2026-05-07 14:56 | 33.64968 | 130.32113 | 1979 ft | 225 kts | 152° |
| 2026-05-07 14:56 | 33.63623 | 130.33079 | 1983 ft | 226 kts | 152° |
| 2026-05-07 14:56 | 33.62273 | 130.34051 | 1980 ft | 227 kts | 152° |
| 2026-05-07 14:57 | 33.60933 | 130.35015 | 1967 ft | 219 kts | 152° |
| 2026-05-07 14:57 | 33.59678 | 130.35927 | 1976 ft | 203 kts | 152° |
| 2026-05-07 14:57 | 33.58516 | 130.36781 | 1977 ft | 190 kts | 152° |
| 2026-05-07 14:57 | 33.57414 | 130.37602 | 1969 ft | 185 kts | 152° |
| 2026-05-07 14:58 | 33.56326 | 130.38413 | 1974 ft | 184 kts | 152° |
| 2026-05-07 14:58 | 33.55612 | 130.38945 | 1969 ft | 180 kts | 152° |
| 2026-05-07 14:58 | 33.54591 | 130.39708 | 1976 ft | 167 kts | 152° |
| 2026-05-07 14:58 | 33.53618 | 130.40439 | 1970 ft | 165 kts | 152° |
| 2026-05-07 14:59 | 33.52642 | 130.41177 | 1980 ft | 166 kts | 152° |
| 2026-05-07 14:59 | 33.51719 | 130.42004 | 1855 ft | 169 kts | 138° |
| 2026-05-07 14:59 | 33.50939 | 130.43064 | 1724 ft | 169 kts | 134° |
| 2026-05-07 14:59 | 33.50270 | 130.44204 | 1508 ft | 167 kts | 122° |
| 2026-05-07 15:00 | 33.49841 | 130.45442 | 1485 ft | 158 kts | 97° |
| 2026-05-07 15:00 | 33.50022 | 130.46749 | 1513 ft | 162 kts | 78° |
| 2026-05-07 15:00 | 33.50299 | 130.48037 | 1409 ft | 155 kts | 68° |
| 2026-05-07 15:00 | 33.51018 | 130.48912 | 1233 ft | 144 kts | 30° |
| 2026-05-07 15:01 | 33.51987 | 130.49189 | 1061 ft | 143 kts | 351° |
| 2026-05-07 15:01 | 33.52923 | 130.48818 | 973 ft | 140 kts | 334° |
| 2026-05-07 15:01 | 33.53814 | 130.48323 | 889 ft | 143 kts | 331° |
| 2026-05-07 15:01 | 33.54670 | 130.47742 | 698 ft | 141 kts | 330° |
| 2026-05-07 15:02 | 33.55506 | 130.47169 | 521 ft | 138 kts | 330° |
| 2026-05-07 15:02 | 33.56347 | 130.46599 | 325 ft | 139 kts | 331° |
| 2026-05-07 15:02 | 33.57189 | 130.46024 | 166 ft | 139 kts | 331° |
| 2026-05-07 15:02 | 33.58021 | 130.45457 | 45 ft | 131 kts | 331° |
| 2026-05-07 15:03 | 33.58699 | 130.44996 | 38 ft | 90 kts | 330° |
| 2026-05-07 15:03 | 33.59047 | 130.44755 | 33 ft | 31 kts | 322° |
| 2026-05-07 15:03 | 33.59135 | 130.44640 | 33 ft | 14 kts | 304° |
| 2026-05-07 15:03 | 33.59186 | 130.44540 | 31 ft | 14 kts | 301° |
| 2026-05-07 15:04 | 33.59229 | 130.44418 | 33 ft | 19 kts | 268° |
| 2026-05-07 15:04 | 33.59194 | 130.44344 | 34 ft | 8 kts | 237° |
| 2026-05-07 15:04 | 33.59148 | 130.44315 | 34 ft | 8 kts | 168° |
| 2026-05-07 15:04 | 33.59098 | 130.44347 | 34 ft | 8 kts | 150° |
| 2026-05-07 15:05 | 33.59048 | 130.44380 | 34 ft | 8 kts | 152° |
| 2026-05-07 15:05 | 33.58973 | 130.44429 | 35 ft | 16 kts | 151° |
| 2026-05-07 15:05 | 33.58873 | 130.44495 | 35 ft | 16 kts | 151° |
| 2026-05-07 15:05 | 33.58773 | 130.44561 | 35 ft | 16 kts | 151° |
| 2026-05-07 15:06 | 33.58717 | 130.44598 | 35 ft | 3 kts | 156° |
| 2026-05-07 15:06 | 33.58695 | 130.44595 | 37 ft | 3 kts | 207° |
| 2026-05-07 15:06 | 33.58679 | 130.44566 | 37 ft | 5 kts | 237° |
| 2026-05-07 15:06 | 33.58659 | 130.44524 | 35 ft | 6 kts | 240° |
| 2026-05-07 15:07 | 33.58638 | 130.44481 | 36 ft | 3 kts | 241° |
| 2026-05-07 15:07 | 33.58635 | 130.44475 | 37 ft | 0 kts | 241° |
| 2026-05-07 15:07 | 33.58635 | 130.44474 | 37 ft | 0 kts | 241° |